GMT,Max TemperatureF,Mean TemperatureF,Min TemperatureF,Max Dew PointF,MeanDew PointF,Min DewpointF,Max Humidity, Mean Humidity, Min Humidity, Max Sea Level PressureIn, Mean Sea Level PressureIn, Min Sea Level PressureIn, Max VisibilityMiles, Mean VisibilityMiles, Min VisibilityMiles, Max Wind SpeedMPH, Mean Wind SpeedMPH, Max Gust SpeedMPH,PrecipitationIn, CloudCover, Events, WindDirDegrees
2013-2-1,43,38,33,41,35,30,93,81,66,29.89,29.59,29.39,16,7,6,30,20,39,0.00,4,Rain,272
2013-2-2,43,36,30,34,31,28,100,81,61,30.29,30.15,29.89,16,7,6,13,9,,0.00,3,,277
2013-2-3,50,42,34,46,44,35,100,91,72,30.18,29.97,29.83,19,6,2,28,19,38,0.01,6,Rain,245
2013-2-4,45,40,33,48,36,30,100,79,61,29.92,29.82,29.65,16,6,3,33,26,47,0.02,5,Rain-Snow,258
2013-2-5,44,38,31,37,33,28,93,85,69,29.71,29.53,29.42,19,7,3,34,23,47,0.01,4,Rain-Snow,265
2013-2-6,43,38,32,34,31,28,93,76,54,30.27,30.06,29.71,19,7,6,24,18,38,0.00,1,,309
2013-2-7,44,37,30,43,34,30,100,93,87,30.29,30.13,29.89,19,7,3,17,12,,0.20,6,Rain,265
2013-2-8,45,40,36,43,38,34,100,89,82,30.27,30.23,30.18,12,6,6,16,12,,0.00,6,Rain,276
2013-2-9,48,44,39,45,42,39,100,92,82,30.22,30.02,29.68,19,6,4,16,12,,0.04,6,Rain,239
2013-2-10,44,42,39,45,41,37,100,96,87,29.70,29.34,29.18,7,5,1,16,10,,0.35,6,Rain,273
2013-2-11,39,38,37,39,36,34,100,92,81,29.80,29.53,29.24,11,6,2,14,9,,0.00,6,Rain,63
2013-2-12,41,38,36,39,37,36,100,92,87,30.00,29.93,29.83,6,5,3,15,9,,0.00,6,Rain,132
2013-2-13,53,46,38,49,44,37,100,91,82,29.99,29.79,29.65,12,5,2,20,12,,0.20,6,Rain,183
2013-2-14,48,44,39,45,40,37,93,85,68,30.01,29.83,29.68,19,7,6,23,15,,0.01,2,Rain,255
2013-2-15,49,42,36,41,37,34,100,82,62,30.14,30.09,30.04,19,7,5,16,10,,0.00,4,Rain,224
2013-2-16,55,45,35,46,41,33,100,84,66,30.12,30.06,30.04,19,7,6,21,6,,0.01,6,Rain,149
2013-2-17,48,45,42,41,39,32,87,80,66,30.06,29.99,29.95,19,7,6,26,17,26,0.00,5,,139
2013-2-18,44,42,40,37,35,30,87,73,57,30.06,30.01,29.95,16,7,6,21,16,,0.00,3,,132
2013-2-19,46,38,30,37,35,28,100,84,64,30.11,30.06,30.04,12,6,2,14,10,,0.00,2,,116
2013-2-20,44,36,28,37,34,28,100,83,69,30.15,30.09,30.04,6,4,0,23,11,,0.00,5,Fog,125
2013-2-21,37,36,35,32,28,25,75,71,58,30.21,30.16,30.15,19,7,6,22,18,,0.00,6,,125
2013-2-22,35,34,33,28,25,23,75,67,52,30.24,30.20,30.15,19,7,6,16,12,,0.00,7,Snow,101
2013-2-23,36,34,32,30,28,25,87,78,61,30.33,30.26,30.24,19,7,4,14,8,,0.00,6,Rain-Snow,360
2013-2-24,40,34,27,34,29,23,100,82,61,30.45,30.39,30.33,16,6,4,12,7,,0.01,5,Rain-Snow,33
2013-2-25,44,35,26,34,31,27,100,84,61,30.57,30.52,30.45,6,6,6,11,5,,0.00,4,,3
2013-2-26,43,36,29,37,35,28,100,85,67,30.66,30.59,30.54,16,7,6,16,8,,0.00,5,,59
2013-2-27,44,40,35,37,36,32,93,85,68,30.67,30.63,30.60,11,5,3,12,7,,0.00,6,,39
2013-2-28,43,38,33,39,36,33,100,91,81,30.63,30.54,30.48,9,4,2,12,6,,0.00,6,,340